22NC weather

Flint Ridge Airport
Siler City, North Carolina, United States

Public forecast

Using degrees Fahrenheit for public forecast. Weather courtesy of forecast.io.

METAR (pilot weather report)

Closest report is Siler City Municipal Airport, 7.2 nm (13.4 km) SSW. Retrieved 2019/09/17 17:15 UTC (42 minutes ago):

KSCR 171715Z AUTO 11007KT 070V140 10SM SCT048 31/18 A3001 RMK AO2 T03090175

TAF (pilot weather forecast)

Closest forecast is Piedmont Triad International Airport, 28.2 nm (52.2 km) NW. Retrieved 2019/09/17 12:22 UTC (6 hours ago):

TAF KGSO 171120Z 1712/1812 04003KT P6SM SKC FM172100 06011KT P6SM BKN050 FM180200 07012KT P6SM BKN025